Time;durP1;ratioP1;P1;durP2;ratioP2;P2;SDS_P1;SDS_P2;PMS_P1;PMS_P2;Temp;Humidity;BMP_temperature;BMP_pressure;BME280_temperature;BME280_humidity;BME280_pressure;Samples;Min_cycle;Max_cycle;Signal;HPM_P1;HPM_P2
2021/01/09 00:00:26;;;;;;;18.97;14.67;;;;;;;1.30;91.07;99803.40;1762117;81;25194;-67
2021/01/09 00:02:54;;;;;;;18.03;13.90;;;;;;;1.36;91.04;99808.83;1753110;80;25293;-67
2021/01/09 00:05:23;;;;;;;19.03;14.33;;;;;;;1.36;90.92;99801.05;1735770;81;25394;-67
2021/01/09 00:07:50;;;;;;;18.60;14.07;;;;;;;1.37;90.92;99809.20;1731896;81;25277;-68
2021/01/09 00:10:17;;;;;;;19.30;15.03;;;;;;;1.40;90.84;99810.39;1731917;81;25637;-67
2021/01/09 00:12:43;;;;;;;21.13;15.57;;;;;;;1.40;90.82;99805.67;1731874;81;25236;-67
2021/01/09 00:15:11;;;;;;;19.63;15.23;;;;;;;1.41;90.83;99810.80;1731761;82;25205;-68
2021/01/09 00:17:38;;;;;;;20.00;14.67;;;;;;;1.41;90.74;99809.50;1731942;81;25245;-67
2021/01/09 00:20:13;;;;;;;20.90;15.50;;;;;;;1.41;90.78;99807.38;1731933;82;25284;-69
2021/01/09 00:22:40;;;;;;;31.20;19.97;;;;;;;1.43;90.80;99808.16;1715441;82;25109;-67
2021/01/09 00:25:10;;;;;;;31.73;20.63;;;;;;;1.45;90.72;99801.99;1731850;82;25421;-67
2021/01/09 00:27:36;;;;;;;40.93;23.63;;;;;;;1.46;90.73;99805.45;1731970;81;25244;-68
2021/01/09 00:30:04;;;;;;;43.10;25.23;;;;;;;1.50;90.77;99810.91;1731960;81;25220;-68
2021/01/09 00:32:31;;;;;;;55.00;29.80;;;;;;;1.53;90.70;99805.61;1715292;82;25774;-67
2021/01/09 00:34:58;;;;;;;37.07;23.33;;;;;;;1.54;90.67;99807.73;1731890;81;25303;-67
2021/01/09 00:37:26;;;;;;;29.10;19.67;;;;;;;1.57;90.64;99810.22;1731842;81;25224;-67
2021/01/09 00:39:52;;;;;;;27.40;18.23;;;;;;;1.60;90.61;99814.83;1731929;81;25227;-67
2021/01/09 00:42:19;;;;;;;25.90;18.53;;;;;;;1.62;90.53;99814.78;1731881;81;25280;-67
2021/01/09 00:44:46;;;;;;;24.93;17.37;;;;;;;1.58;90.50;99812.76;1731784;82;25252;-67
2021/01/09 00:47:12;;;;;;;23.90;17.30;;;;;;;1.60;90.53;99819.19;1731826;81;25192;-67
2021/01/09 00:49:39;;;;;;;22.80;17.37;;;;;;;1.61;90.33;99819.13;1732009;82;25241;-67
2021/01/09 00:52:06;;;;;;;22.13;16.67;;;;;;;1.58;90.35;99827.48;1731925;81;25184;-67
2021/01/09 00:54:35;;;;;;;30.87;20.73;;;;;;;1.56;90.33;99826.23;1731625;82;25160;-67
2021/01/09 00:57:02;;;;;;;29.43;20.63;;;;;;;1.54;90.27;99816.81;1730171;83;25162;-68
2021/01/09 00:59:28;;;;;;;31.47;21.37;;;;;;;1.50;90.45;99825.62;1730374;83;25716;-68
2021/01/09 01:01:56;;;;;;;28.67;20.53;;;;;;;1.52;90.48;99829.83;1709132;84;25674;-68
2021/01/09 01:04:23;;;;;;;25.83;19.20;;;;;;;1.52;90.40;99821.22;1730325;82;25139;-68
2021/01/09 01:06:50;;;;;;;29.73;21.23;;;;;;;1.51;90.37;99827.30;1730260;82;25315;-68
2021/01/09 01:09:17;;;;;;;32.90;21.20;;;;;;;1.48;90.47;99832.98;1730264;82;25228;-70
2021/01/09 01:11:44;;;;;;;26.60;19.80;;;;;;;1.47;90.53;99832.62;1730214;83;25735;-67
2021/01/09 01:14:11;;;;;;;27.03;19.50;;;;;;;1.48;90.61;99839.47;1730252;83;25142;-67
2021/01/09 01:16:37;;;;;;;25.97;18.73;;;;;;;1.48;90.58;99848.55;1730190;83;25794;-67
2021/01/09 01:19:04;;;;;;;23.27;17.30;;;;;;;1.48;90.63;99841.23;1730217;83;25196;-67
2021/01/09 01:21:34;;;;;;;25.57;18.00;;;;;;;1.50;90.67;99845.90;1730174;83;25675;-67
2021/01/09 01:24:03;;;;;;;24.27;18.13;;;;;;;1.51;90.69;99853.22;1717605;83;25254;-68
2021/01/09 01:26:30;;;;;;;26.23;18.27;;;;;;;1.52;90.66;99849.73;1730180;83;25094;-68
2021/01/09 01:28:56;;;;;;;25.40;18.10;;;;;;;1.53;90.72;99848.84;1730196;82;25264;-67
2021/01/09 01:31:23;;;;;;;25.00;18.37;;;;;;;1.54;90.76;99845.33;1730243;83;25636;-69
2021/01/09 01:33:50;;;;;;;25.93;18.10;;;;;;;1.59;90.74;99857.23;1730086;83;25295;-68
2021/01/09 01:36:18;;;;;;;25.63;18.70;;;;;;;1.62;90.67;99862.75;1730259;83;25097;-68
2021/01/09 01:38:45;;;;;;;23.03;17.67;;;;;;;1.60;90.61;99857.61;1730198;82;25125;-68
2021/01/09 01:41:12;;;;;;;24.07;17.97;;;;;;;1.58;90.50;99854.70;1730397;82;25583;-69
2021/01/09 01:43:38;;;;;;;21.53;16.37;;;;;;;1.56;90.63;99855.19;1730606;82;25235;-68
2021/01/09 01:46:07;;;;;;;23.87;17.73;;;;;;;1.61;90.79;99855.42;1730368;83;25303;-68
2021/01/09 01:48:35;;;;;;;23.93;17.20;;;;;;;1.66;90.75;99856.10;1730361;83;25339;-67
2021/01/09 01:51:01;;;;;;;24.47;18.07;;;;;;;1.71;90.54;99861.13;1730426;82;25152;-68
2021/01/09 01:53:29;;;;;;;24.30;18.13;;;;;;;1.72;90.63;99864.09;1730370;82;25683;-67
2021/01/09 01:55:56;;;;;;;23.73;17.77;;;;;;;1.77;90.55;99859.58;1730886;82;25283;-67
2021/01/09 01:58:22;;;;;;;23.27;18.03;;;;;;;1.81;90.48;99858.58;1731825;81;25508;-68
2021/01/09 02:00:49;;;;;;;24.87;18.43;;;;;;;1.82;90.10;99864.14;1731920;81;25085;-68
2021/01/09 02:03:20;;;;;;;24.03;17.93;;;;;;;1.77;90.05;99865.22;1732022;82;25240;-68
2021/01/09 02:06:17;;;;;;;23.93;17.90;;;;;;;1.75;90.12;99861.85;1732017;82;25138;-67
2021/01/09 02:09:06;;;;;;;28.03;19.70;;;;;;;1.73;90.03;99868.39;1731918;82;25212;-67
2021/01/09 02:11:52;;;;;;;25.73;19.33;;;;;;;1.72;90.16;99862.80;1731925;81;25324;-68
2021/01/09 02:14:41;;;;;;;25.07;18.57;;;;;;;1.74;90.15;99864.03;1731885;81;25169;-68
2021/01/09 02:17:08;;;;;;;24.07;18.37;;;;;;;1.75;90.02;99858.80;1732023;82;25362;-68
2021/01/09 02:19:38;;;;;;;26.37;19.00;;;;;;;1.71;89.91;99861.13;1731963;81;25730;-68
2021/01/09 02:22:06;;;;;;;25.20;19.20;;;;;;;1.66;89.91;99859.99;1731105;81;25165;-68
2021/01/09 02:24:33;;;;;;;25.17;18.90;;;;;;;1.60;90.08;99855.48;1731837;81;25391;-68
2021/01/09 02:27:02;;;;;;;29.00;19.00;;;;;;;1.61;90.12;99855.42;1731897;82;25883;-68
2021/01/09 02:29:29;;;;;;;26.40;19.77;;;;;;;1.57;90.15;99859.48;1731897;82;25756;-68
2021/01/09 02:32:05;;;;;;;25.87;19.43;;;;;;;1.55;90.24;99858.70;1732017;82;25239;-67
2021/01/09 02:34:53;;;;;;;25.40;18.43;;;;;;;1.47;90.38;99858.53;1730752;81;25670;-68
2021/01/09 02:37:20;;;;;;;24.27;17.80;;;;;;;1.44;90.58;99855.19;1731779;82;25718;-68
2021/01/09 02:39:46;;;;;;;23.57;17.80;;;;;;;1.39;90.51;99857.97;1731907;81;25161;-68
2021/01/09 02:42:16;;;;;;;22.30;17.50;;;;;;;1.37;90.57;99860.20;1731878;82;25078;-68
2021/01/09 02:44:42;;;;;;;21.83;16.73;;;;;;;1.37;90.69;99864.92;1715585;82;25291;-67
2021/01/09 02:47:09;;;;;;;24.50;18.10;;;;;;;1.33;90.71;99859.47;1731874;81;25287;-67
2021/01/09 02:49:36;;;;;;;22.63;17.27;;;;;;;1.32;90.82;99860.82;1731922;81;25185;-68
2021/01/09 02:52:03;;;;;;;20.30;15.93;;;;;;;1.28;90.89;99854.91;1731876;82;25137;-68
2021/01/09 02:54:29;;;;;;;20.23;16.30;;;;;;;1.30;90.95;99862.17;1731879;82;25156;-69
2021/01/09 02:56:56;;;;;;;22.10;17.20;;;;;;;1.24;90.93;99857.19;1716995;82;25077;-68
2021/01/09 02:59:22;;;;;;;19.80;15.17;;;;;;;1.24;91.07;99861.95;1732398;81;25125;-69
2021/01/09 03:01:49;;;;;;;20.57;16.53;;;;;;;1.26;91.18;99863.19;1732485;81;25349;-68
2021/01/09 03:04:16;;;;;;;20.47;16.40;;;;;;;1.23;91.17;99860.70;1732411;82;25652;-69
2021/01/09 03:06:43;;;;;;;19.80;15.03;;;;;;;1.24;91.27;99864.97;1732466;81;25089;-68
2021/01/09 03:09:11;;;;;;;21.60;15.27;;;;;;;1.25;91.25;99865.38;1732497;82;25144;-68
2021/01/09 03:11:38;;;;;;;21.33;16.20;;;;;;;1.23;91.27;99864.59;1732403;82;25208;-68
2021/01/09 03:14:05;;;;;;;20.03;15.23;;;;;;;1.23;91.37;99858.11;1732382;81;25216;-68
2021/01/09 03:16:32;;;;;;;19.67;15.50;;;;;;;1.26;91.46;99856.25;1732294;82;25137;-67
2021/01/09 03:18:59;;;;;;;21.83;15.53;;;;;;;1.26;91.36;99859.30;1732442;82;25299;-67
2021/01/09 03:21:25;;;;;;;21.43;16.03;;;;;;;1.25;91.37;99851.13;1732391;81;25583;-67
2021/01/09 03:23:52;;;;;;;20.93;15.93;;;;;;;1.25;91.43;99859.73;1732470;82;25208;-67
2021/01/09 03:26:19;;;;;;;21.27;15.73;;;;;;;1.26;91.44;99856.72;1732413;81;25306;-67
2021/01/09 03:28:45;;;;;;;21.27;16.30;;;;;;;1.31;91.46;99862.58;1732426;81;25753;-68
2021/01/09 03:31:12;;;;;;;22.73;16.87;;;;;;;1.33;91.51;99858.17;1732399;82;25078;-67
2021/01/09 03:33:38;;;;;;;21.70;15.17;;;;;;;1.35;91.38;99853.77;1732396;81;25181;-68
2021/01/09 03:36:06;;;;;;;21.40;16.40;;;;;;;1.35;91.41;99864.14;1732279;82;25209;-68
2021/01/09 03:38:33;;;;;;;21.87;16.43;;;;;;;1.34;91.42;99863.77;1732392;82;25083;-68
2021/01/09 03:41:00;;;;;;;22.83;16.90;;;;;;;1.38;91.36;99866.63;1732344;82;25141;-68
2021/01/09 03:43:27;;;;;;;22.73;16.60;;;;;;;1.31;91.41;99859.98;1732485;82;25286;-68
2021/01/09 03:45:53;;;;;;;22.80;16.67;;;;;;;1.28;91.48;99860.92;1732454;82;25320;-70
2021/01/09 03:48:20;;;;;;;23.10;16.80;;;;;;;1.32;91.56;99868.59;1732460;82;25141;-69
2021/01/09 03:50:46;;;;;;;22.40;16.97;;;;;;;1.33;91.55;99867.70;1732307;82;25628;-68
2021/01/09 03:53:13;;;;;;;23.60;16.97;;;;;;;1.31;91.62;99871.64;1732432;81;25283;-68
2021/01/09 03:55:40;;;;;;;21.20;16.03;;;;;;;1.31;91.58;99872.94;1732321;82;25165;-68
2021/01/09 03:58:06;;;;;;;22.97;16.70;;;;;;;1.32;91.60;99869.89;1731943;82;25643;-68
2021/01/09 04:00:33;;;;;;;21.90;16.70;;;;;;;1.27;91.66;99877.39;1731992;82;25223;-68
2021/01/09 04:02:59;;;;;;;22.20;15.53;;;;;;;1.29;91.78;99874.29;1731814;81;25283;-68
2021/01/09 04:05:26;;;;;;;20.20;15.60;;;;;;;1.32;91.85;99875.91;1732015;82;25082;-68
2021/01/09 04:07:53;;;;;;;20.77;16.23;;;;;;;1.29;91.76;99878.61;1731773;82;25157;-68
2021/01/09 04:10:20;;;;;;;21.23;16.40;;;;;;;1.26;91.74;99882.16;1731881;82;25669;-68
2021/01/09 04:12:46;;;;;;;21.13;16.27;;;;;;;1.26;91.81;99880.03;1731785;81;25327;-68
2021/01/09 04:15:13;;;;;;;22.87;16.90;;;;;;;1.29;91.85;99883.78;1731760;82;25168;-68
2021/01/09 04:17:40;;;;;;;22.37;16.70;;;;;;;1.31;91.80;99889.78;1731695;81;25213;-69
2021/01/09 04:20:08;;;;;;;23.37;16.47;;;;;;;1.29;91.81;99886.37;1731827;82;25391;-69
2021/01/09 04:22:35;;;;;;;20.73;16.93;;;;;;;1.31;91.83;99888.49;1731914;82;25208;-68
2021/01/09 04:25:03;;;;;;;22.90;17.30;;;;;;;1.26;91.83;99890.40;1731825;82;25555;-69
2021/01/09 04:27:30;;;;;;;23.20;17.50;;;;;;;1.21;91.92;99896.20;1731790;81;25200;-68
2021/01/09 04:29:56;;;;;;;22.83;18.10;;;;;;;1.21;92.01;99901.37;1715425;82;25104;-69
2021/01/09 04:32:23;;;;;;;25.23;17.30;;;;;;;1.22;92.03;99896.11;1731736;82;25496;-68
2021/01/09 04:34:50;;;;;;;22.13;17.07;;;;;;;1.19;91.96;99901.86;1731950;82;25149;-68
2021/01/09 04:37:16;;;;;;;21.23;15.87;;;;;;;1.13;92.12;99903.38;1715391;82;25711;-68
2021/01/09 04:39:44;;;;;;;24.00;17.73;;;;;;;1.12;92.11;99908.99;1731852;82;25671;-68
2021/01/09 04:42:10;;;;;;;22.90;17.70;;;;;;;1.05;92.26;99914.83;1731879;81;25141;-68
2021/01/09 04:44:37;;;;;;;23.73;16.40;;;;;;;1.13;92.59;99910.70;1715463;82;25699;-68
2021/01/09 04:47:04;;;;;;;22.93;16.97;;;;;;;1.06;92.64;99910.52;1731811;82;25125;-69
2021/01/09 04:49:30;;;;;;;23.40;17.23;;;;;;;1.05;92.76;99910.11;1731859;81;25279;-68
2021/01/09 04:51:57;;;;;;;21.73;16.13;;;;;;;1.06;92.80;99917.83;1731641;82;25152;-69
2021/01/09 04:54:25;;;;;;;22.67;16.80;;;;;;;1.04;92.95;99918.34;1731931;82;25138;-68
2021/01/09 04:56:54;;;;;;;25.23;16.33;;;;;;;1.06;92.95;99924.30;1731588;81;25089;-68
2021/01/09 04:59:22;;;;;;;23.17;16.23;;;;;;;1.06;92.96;99917.83;1731846;82;25255;-69
2021/01/09 05:01:49;;;;;;;21.77;16.37;;;;;;;0.98;93.24;99922.41;1731867;82;25192;-71
2021/01/09 05:04:17;;;;;;;23.67;16.50;;;;;;;0.97;93.08;99923.30;1731881;81;25236;-68
2021/01/09 05:06:47;;;;;;;22.73;16.20;;;;;;;0.98;93.23;99919.83;1731845;81;26074;-69
2021/01/09 05:09:15;;;;;;;21.43;16.40;;;;;;;0.99;93.17;99920.23;1731964;81;26615;-67
2021/01/09 05:11:42;;;;;;;20.70;15.77;;;;;;;1.05;93.18;99928.23;1731775;81;25169;-67
2021/01/09 05:14:10;;;;;;;22.13;15.77;;;;;;;1.05;93.17;99932.13;1731860;81;25196;-68
2021/01/09 05:16:37;;;;;;;20.77;14.80;;;;;;;1.08;93.10;99932.03;1731802;82;25770;-69
2021/01/09 05:19:05;;;;;;;21.90;15.37;;;;;;;1.08;93.17;99934.62;1731940;81;25556;-68
2021/01/09 05:21:35;;;;;;;19.87;14.27;;;;;;;1.06;93.13;99929.94;1731923;81;25192;-67
2021/01/09 05:24:12;;;;;;;22.00;14.90;;;;;;;1.09;93.30;99931.14;1849803;76;26965;-68
2021/01/09 05:26:39;;;;;;;20.13;13.13;;;;;;;1.08;93.22;99938.50;1787308;77;25681;-67
2021/01/09 05:29:08;;;;;;;19.23;13.60;;;;;;;1.13;92.94;99942.24;1788698;78;25326;-68
2021/01/09 05:31:37;;;;;;;20.77;13.50;;;;;;;1.01;93.08;99946.09;1819671;78;25683;-67
2021/01/09 05:34:05;;;;;;;21.27;14.00;;;;;;;1.01;93.27;99945.63;1819841;77;25267;-68
2021/01/09 05:36:32;;;;;;;19.37;13.97;;;;;;;1.03;93.35;99954.65;1819736;78;25254;-67
2021/01/09 05:38:59;;;;;;;19.00;13.70;;;;;;;0.98;93.68;99949.61;1819876;77;25180;-67
2021/01/09 05:41:26;;;;;;;20.20;13.83;;;;;;;0.94;93.75;99949.33;1819812;78;25326;-67
2021/01/09 05:44:03;;;;;;;17.17;11.70;;;;;;;0.93;93.92;99959.28;1819780;77;25227;-67
2021/01/09 05:46:33;;;;;;;16.90;11.13;;;;;;;0.92;94.11;99953.27;1818862;77;25498;-67
2021/01/09 05:49:00;;;;;;;13.50;10.47;;;;;;;0.92;94.20;99958.88;1819748;77;25197;-67
2021/01/09 05:54:04;;;;;;;14.47;10.27;;;;;;;0.95;94.42;99965.25;1849883;76;27481;-68
2021/01/09 05:56:31;;;;;;;18.93;12.30;;;;;;;0.87;94.44;99977.59;1819808;78;25296;-68
2021/01/09 05:58:58;;;;;;;17.83;11.70;;;;;;;0.83;94.38;99974.27;1761288;78;25627;-67
2021/01/09 06:01:29;;;;;;;14.80;10.80;;;;;;;0.85;94.40;99981.53;1819856;77;25195;-68
2021/01/09 06:04:19;;;;;;;14.20;9.77;;;;;;;0.89;94.36;99983.59;1819699;77;25857;-68
2021/01/09 06:06:51;;;;;;;15.47;10.57;;;;;;;0.90;94.41;99986.56;1791875;78;25285;-68
2021/01/09 06:09:21;;;;;;;14.60;10.03;;;;;;;0.82;94.28;99985.96;1819925;78;25196;-68
2021/01/09 06:11:48;;;;;;;11.60;8.87;;;;;;;0.80;94.25;99990.34;1819493;78;25254;-68
2021/01/09 06:14:15;;;;;;;10.93;8.30;;;;;;;0.74;94.18;99998.71;1819572;77;25251;-68
2021/01/09 06:16:43;;;;;;;11.13;8.23;;;;;;;0.80;94.09;100000.25;1819721;77;25741;-68
2021/01/09 06:19:10;;;;;;;11.20;8.20;;;;;;;0.65;93.84;99999.44;1819895;77;25322;-68
2021/01/09 06:21:37;;;;;;;11.20;8.27;;;;;;;0.67;93.84;100004.11;1819711;77;25721;-68
2021/01/09 06:24:05;;;;;;;8.37;6.80;;;;;;;0.67;93.73;100005.41;1819722;77;25246;-67
2021/01/09 06:26:33;;;;;;;9.87;7.97;;;;;;;0.67;93.32;100006.70;1819597;78;25112;-70
2021/01/09 06:29:19;;;;;;;9.70;6.97;;;;;;;0.64;93.35;100010.70;1819915;77;25268;-68
2021/01/09 06:31:40;;;;;;;9.53;7.47;;;;;;;0.64;93.04;100010.70;1789390;78;25137;-69
2021/01/09 06:34:06;;;;;;;9.70;7.63;;;;;;;0.57;93.15;100015.64;1819680;78;25259;-69
2021/01/09 06:36:33;;;;;;;10.40;7.63;;;;;;;0.60;93.12;100020.73;1788059;78;25677;-69
2021/01/09 06:39:01;;;;;;;9.20;7.60;;;;;;;0.57;92.97;100028.16;1819605;77;25214;-69
2021/01/09 06:41:30;;;;;;;10.50;7.90;;;;;;;0.57;93.03;100028.59;1819735;77;25267;-67
2021/01/09 06:43:57;;;;;;;8.90;7.13;;;;;;;0.57;93.06;100029.45;1788057;77;25612;-68
2021/01/09 06:46:35;;;;;;;8.63;6.50;;;;;;;0.60;92.90;100029.80;1761334;78;25306;-68
2021/01/09 06:49:02;;;;;;;7.80;6.30;;;;;;;0.60;92.71;100038.40;1819780;77;25182;-68
2021/01/09 06:51:39;;;;;;;8.80;6.27;;;;;;;0.63;92.22;100039.61;1795046;77;25230;-68
2021/01/09 06:54:19;;;;;;;8.33;6.37;;;;;;;0.60;91.93;100044.88;1795349;78;25238;-68
2021/01/09 06:56:46;;;;;;;9.63;6.90;;;;;;;0.56;91.98;100048.45;1796373;78;25724;-68
2021/01/09 06:59:37;;;;;;;8.53;6.77;;;;;;;0.57;92.03;100044.13;1796365;78;25784;-68
2021/01/09 07:02:26;;;;;;;9.47;7.60;;;;;;;0.55;92.04;100051.93;1796513;79;25328;-67
2021/01/09 07:05:09;;;;;;;10.20;8.33;;;;;;;0.58;91.98;100055.73;1795909;78;25145;-69
2021/01/09 07:07:54;;;;;;;10.10;7.40;;;;;;;0.54;92.01;100060.61;1769202;79;25747;-67
2021/01/09 07:10:29;;;;;;;8.70;7.53;;;;;;;0.57;92.09;100063.53;1795855;79;25732;-67
2021/01/09 07:12:59;;;;;;;8.73;6.67;;;;;;;0.62;91.95;100062.95;1795778;79;25198;-67
2021/01/09 07:15:26;;;;;;;8.00;6.80;;;;;;;0.60;91.32;100074.64;1794803;78;25644;-68
2021/01/09 07:17:58;;;;;;;8.10;6.43;;;;;;;0.63;90.92;100066.79;1795682;78;25265;-68
2021/01/09 07:20:36;;;;;;;7.80;6.80;;;;;;;0.57;90.88;100077.34;1795831;79;25276;-69
2021/01/09 07:23:06;;;;;;;6.90;6.20;;;;;;;0.55;90.74;100077.39;1791936;78;25190;-67
2021/01/09 07:25:44;;;;;;;8.23;6.50;;;;;;;0.53;90.49;100084.33;1769693;79;25281;-67
2021/01/09 07:28:19;;;;;;;7.77;6.10;;;;;;;0.44;90.63;100094.13;1795217;79;25249;-67
2021/01/09 07:30:49;;;;;;;8.23;6.37;;;;;;;0.47;90.57;100094.87;1795209;78;25374;-68
2021/01/09 07:33:16;;;;;;;8.47;6.77;;;;;;;0.49;90.27;100098.27;1769441;78;25127;-67
2021/01/09 07:35:46;;;;;;;9.27;6.47;;;;;;;0.46;90.35;100098.34;1795702;79;25052;-68
2021/01/09 07:38:13;;;;;;;9.87;6.87;;;;;;;0.51;90.29;100099.06;1795795;78;25642;-69
2021/01/09 07:40:58;;;;;;;8.97;6.70;;;;;;;0.49;90.13;100103.89;1795709;79;25704;-69
2021/01/09 07:43:43;;;;;;;8.33;6.47;;;;;;;0.45;90.29;100101.81;1795481;78;25691;-70
2021/01/09 07:46:29;;;;;;;7.97;5.77;;;;;;;0.52;89.55;100103.36;1795685;79;25186;-68
2021/01/09 07:48:59;;;;;;;8.03;6.23;;;;;;;0.46;89.77;100103.52;1795207;79;25146;-68
2021/01/09 07:51:54;;;;;;;8.90;6.80;;;;;;;0.50;89.75;100112.04;1795626;78;25249;-69
2021/01/09 07:54:51;;;;;;;8.90;6.50;;;;;;;0.52;89.31;100109.83;1795644;79;26063;-69
2021/01/09 07:57:22;;;;;;;6.97;5.77;;;;;;;0.55;88.64;100116.64;1770686;79;25351;-68
2021/01/09 08:00:03;;;;;;;6.90;5.80;;;;;;;0.51;88.81;100115.05;1795812;79;25708;-69
2021/01/09 08:02:36;;;;;;;8.30;6.30;;;;;;;0.51;88.47;100119.77;1795825;78;25206;-70
2021/01/09 08:07:56;;;;;;;8.63;6.30;;;;;;;0.64;88.13;100125.45;1849877;76;26381;-68
2021/01/09 08:10:32;;;;;;;7.93;6.20;;;;;;;0.61;87.89;100130.71;1819753;78;25595;-68
2021/01/09 08:13:04;;;;;;;8.30;6.70;;;;;;;0.68;87.13;100133.97;1819819;78;25322;-69
2021/01/09 08:15:33;;;;;;;9.33;6.73;;;;;;;0.68;87.11;100135.27;1819778;78;25618;-68
2021/01/09 08:18:05;;;;;;;11.13;7.37;;;;;;;0.66;87.48;100138.36;1819781;78;25614;-69
2021/01/09 08:20:32;;;;;;;8.07;6.37;;;;;;;0.67;87.58;100134.86;1819893;77;25614;-68
2021/01/09 08:23:01;;;;;;;8.90;6.63;;;;;;;0.72;87.64;100144.20;1819731;78;25713;-68
2021/01/09 08:25:34;;;;;;;6.80;5.80;;;;;;;0.78;87.81;100142.33;1819750;77;25694;-68
2021/01/09 08:28:02;;;;;;;9.33;7.13;;;;;;;0.90;86.89;100142.80;1818877;77;25178;-68
2021/01/09 08:30:37;;;;;;;8.90;7.80;;;;;;;0.89;86.41;100140.28;1819681;77;25283;-68
2021/01/09 08:33:13;;;;;;;7.90;7.00;;;;;;;0.83;86.33;100140.45;1819922;77;25184;-69
2021/01/09 08:35:49;;;;;;;7.70;6.50;;;;;;;0.87;86.14;100142.05;1819702;78;25255;-68
2021/01/09 08:38:17;;;;;;;9.90;6.67;;;;;;;0.86;86.59;100146.84;1819778;77;25310;-68
2021/01/09 08:40:44;;;;;;;9.20;7.30;;;;;;;0.98;86.23;100154.23;1819671;78;25631;-68
2021/01/09 08:43:12;;;;;;;9.50;7.00;;;;;;;0.96;86.19;100149.56;1819768;77;25239;-67
2021/01/09 08:45:51;;;;;;;8.87;6.67;;;;;;;0.97;86.42;100152.53;1788663;78;25085;-69
2021/01/09 08:48:32;;;;;;;11.07;8.20;;;;;;;1.09;86.24;100153.94;1819821;78;25674;-68
2021/01/09 08:51:15;;;;;;;12.20;9.07;;;;;;;1.11;85.67;100154.27;1787933;78;25314;-68
2021/01/09 08:54:01;;;;;;;11.67;8.57;;;;;;;1.08;86.19;100158.70;1788285;78;25195;-68
2021/01/09 08:56:28;;;;;;;8.10;6.67;;;;;;;1.17;85.41;100162.30;1789715;77;25255;-69
2021/01/09 08:59:01;;;;;;;9.60;7.27;;;;;;;1.14;85.32;100168.89;1819868;77;25128;-69
2021/01/09 09:01:38;;;;;;;8.87;6.87;;;;;;;1.19;85.08;100168.31;1819768;78;25690;-69
2021/01/09 09:04:06;;;;;;;8.27;6.77;;;;;;;1.19;84.78;100163.55;1819819;78;25243;-69
2021/01/09 09:06:36;;;;;;;9.83;7.97;;;;;;;1.20;85.04;100175.63;1820016;77;25113;-69
2021/01/09 09:09:07;;;;;;;8.57;6.97;;;;;;;1.25;84.69;100181.52;1819908;77;25223;-68
2021/01/09 09:11:35;;;;;;;8.97;7.50;;;;;;;1.27;84.33;100171.94;1819895;77;25259;-69
2021/01/09 09:14:11;;;;;;;8.63;7.30;;;;;;;1.28;83.48;100169.77;1819922;77;25227;-69
2021/01/09 09:16:39;;;;;;;9.10;7.37;;;;;;;1.19;83.78;100185.15;1819826;78;25212;-68
2021/01/09 09:19:16;;;;;;;9.23;7.47;;;;;;;1.24;83.58;100182.39;1819257;78;25298;-69
2021/01/09 09:21:49;;;;;;;9.47;7.70;;;;;;;1.28;82.65;100177.08;1819206;77;25588;-69
2021/01/09 09:24:17;;;;;;;7.90;6.00;;;;;;;1.21;82.97;100172.98;1787741;77;25156;-69
2021/01/09 09:26:44;;;;;;;10.20;7.10;;;;;;;1.31;82.37;100172.27;1819104;77;25174;-70
2021/01/09 09:29:13;;;;;;;8.43;6.20;;;;;;;1.30;82.24;100171.85;1819201;77;25690;-69
2021/01/09 09:31:41;;;;;;;12.67;7.40;;;;;;;1.29;82.84;100179.22;1819128;77;25271;-69
2021/01/09 09:34:15;;;;;;;8.77;6.73;;;;;;;1.37;83.44;100176.40;1819161;77;25691;-68
2021/01/09 09:36:54;;;;;;;9.57;7.07;;;;;;;1.50;82.30;100170.40;1819159;77;25056;-68
2021/01/09 09:39:24;;;;;;;9.03;6.30;;;;;;;1.49;81.43;100176.01;1819232;77;25271;-69
2021/01/09 09:42:01;;;;;;;8.23;5.67;;;;;;;1.56;81.10;100171.48;1819224;77;25286;-70
2021/01/09 09:44:45;;;;;;;8.03;5.50;;;;;;;1.70;78.79;100166.71;1819057;78;25279;-69
2021/01/09 09:47:28;;;;;;;8.63;5.70;;;;;;;1.60;79.12;100158.84;1819183;77;25180;-68
2021/01/09 09:50:01;;;;;;;8.10;5.60;;;;;;;1.56;79.13;100165.00;1819182;77;25297;-68
2021/01/09 09:52:29;;;;;;;7.33;4.87;;;;;;;1.61;78.97;100161.80;1819071;78;25609;-68
2021/01/09 09:55:06;;;;;;;8.07;5.10;;;;;;;1.54;79.38;100171.98;1819183;77;25294;-68
2021/01/09 09:57:34;;;;;;;8.60;5.37;;;;;;;1.61;79.04;100170.45;1818996;78;25655;-69
2021/01/09 10:00:15;;;;;;;7.27;4.77;;;;;;;1.59;78.58;100170.09;1819020;78;25199;-69
2021/01/09 10:02:56;;;;;;;8.00;5.70;;;;;;;1.52;79.22;100177.22;1819058;77;25228;-69
2021/01/09 10:05:24;;;;;;;10.13;6.47;;;;;;;1.58;79.71;100173.59;1819293;78;25591;-68
2021/01/09 10:08:13;;;;;;;6.30;5.57;;;;;;;1.70;78.76;100174.95;1821142;78;25148;-69
2021/01/09 10:10:41;;;;;;;9.00;6.50;;;;;;;1.77;77.62;100168.20;1822199;77;25713;-69
2021/01/09 10:13:07;;;;;;;7.23;5.17;;;;;;;1.56;78.43;100170.19;1822158;77;25753;-69
2021/01/09 10:15:34;;;;;;;6.40;5.00;;;;;;;1.70;77.18;100168.47;1822256;77;25729;-69
2021/01/09 10:18:01;;;;;;;5.40;4.73;;;;;;;1.72;76.94;100170.55;1822352;77;25188;-69
2021/01/09 10:20:29;;;;;;;7.83;5.40;;;;;;;1.72;76.87;100172.69;1822259;77;25131;-69
2021/01/09 10:22:56;;;;;;;7.80;5.80;;;;;;;1.72;76.55;100166.66;1822237;78;25575;-69
2021/01/09 10:25:22;;;;;;;8.60;5.37;;;;;;;1.83;76.99;100165.41;1822231;78;25104;-68
2021/01/09 10:27:51;;;;;;;7.17;4.80;;;;;;;1.81;76.38;100172.83;1822257;77;25729;-68
2021/01/09 10:30:20;;;;;;;12.10;7.70;;;;;;;1.75;73.86;100167.87;1822253;77;25655;-68
2021/01/09 10:32:50;;;;;;;9.87;5.70;;;;;;;1.82;75.87;100168.05;1792606;78;25097;-68
2021/01/09 10:35:17;;;;;;;9.80;5.73;;;;;;;1.87;74.98;100170.05;1792886;77;25294;-69
2021/01/09 10:37:46;;;;;;;7.17;4.97;;;;;;;1.82;75.62;100168.89;1767211;78;25112;-69
2021/01/09 10:40:13;;;;;;;7.37;4.97;;;;;;;1.81;75.99;100162.45;1793098;77;25049;-69
2021/01/09 10:42:40;;;;;;;9.43;6.07;;;;;;;1.79;76.36;100165.13;1822183;78;25643;-69
2021/01/09 10:45:09;;;;;;;10.13;7.33;;;;;;;1.87;76.13;100163.56;1822191;77;25298;-71
2021/01/09 10:47:36;;;;;;;6.87;5.73;;;;;;;1.85;76.49;100167.50;1789714;78;25087;-69
2021/01/09 10:50:08;;;;;;;8.07;6.57;;;;;;;1.97;75.84;100162.81;1761943;78;25154;-70
2021/01/09 10:52:36;;;;;;;7.57;6.10;;;;;;;1.89;76.47;100164.81;1789959;79;25593;-70
2021/01/09 10:55:05;;;;;;;8.10;5.93;;;;;;;1.93;76.72;100164.67;1761668;80;25691;-69
2021/01/09 10:57:32;;;;;;;7.63;5.40;;;;;;;1.98;76.69;100166.66;1789884;79;25624;-68
2021/01/09 11:00:00;;;;;;;8.83;6.77;;;;;;;1.95;76.83;100159.43;1789920;79;25242;-70
2021/01/09 11:02:28;;;;;;;7.80;6.33;;;;;;;1.94;76.95;100165.05;1790029;78;25202;-69
2021/01/09 11:04:55;;;;;;;8.60;6.03;;;;;;;1.94;77.08;100168.94;1789934;78;25446;-68
2021/01/09 11:07:22;;;;;;;7.40;6.30;;;;;;;1.93;77.12;100163.80;1791634;79;25305;-69
2021/01/09 11:09:49;;;;;;;8.23;6.00;;;;;;;1.99;76.93;100168.80;1795694;78;25706;-68
2021/01/09 11:12:17;;;;;;;7.03;5.60;;;;;;;2.06;76.15;100166.84;1795664;78;25193;-68
2021/01/09 11:14:45;;;;;;;9.13;6.03;;;;;;;2.03;75.59;100168.64;1795856;78;25241;-69
2021/01/09 11:17:14;;;;;;;7.83;6.57;;;;;;;1.97;75.04;100162.81;1766602;79;25632;-68
2021/01/09 11:19:41;;;;;;;9.57;6.90;;;;;;;1.89;75.66;100156.57;1795707;78;25166;-69
2021/01/09 11:22:07;;;;;;;7.33;6.30;;;;;;;1.88;75.92;100161.38;1795610;78;25740;-69
2021/01/09 11:24:34;;;;;;;7.17;6.03;;;;;;;1.84;75.88;100161.94;1795620;78;25202;-68
2021/01/09 11:27:03;;;;;;;6.00;5.40;;;;;;;1.80;75.66;100162.08;1795802;78;25624;-68
2021/01/09 11:29:31;;;;;;;6.37;5.47;;;;;;;1.73;76.05;100165.32;1795886;78;25276;-69
2021/01/09 11:32:01;;;;;;;7.43;5.77;;;;;;;1.74;75.82;100170.89;1795871;79;25234;-68
2021/01/09 11:34:30;;;;;;;8.87;6.70;;;;;;;1.71;74.90;100164.53;1795635;78;25205;-68
2021/01/09 11:36:57;;;;;;;8.83;6.77;;;;;;;1.58;75.61;100161.47;1795750;79;25293;-69
2021/01/09 11:39:26;;;;;;;7.13;6.10;;;;;;;1.62;75.93;100161.77;1795804;79;25694;-68
2021/01/09 11:41:59;;;;;;;6.10;4.73;;;;;;;1.58;75.81;100160.64;1795768;79;25336;-69
2021/01/09 11:44:27;;;;;;;7.20;5.33;;;;;;;1.64;74.95;100155.23;1795708;79;25775;-68
2021/01/09 11:46:54;;;;;;;6.00;4.93;;;;;;;1.51;75.87;100161.70;1795645;79;25301;-68